sensor_id;sensor_type;location;lat;lon;timestamp;P1;durP1;ratioP1;P2;durP2;ratioP2
37559;SDS011;23398;50.928;7.084;2023-03-31T00:01:23;3.10;;;1.25;;
37559;SDS011;23398;50.928;7.084;2023-03-31T00:03:49;1.98;;;1.00;;
37559;SDS011;23398;50.928;7.084;2023-03-31T00:06:14;2.78;;;1.20;;
37559;SDS011;23398;50.928;7.084;2023-03-31T00:08:43;2.95;;;0.90;;
37559;SDS011;23398;50.928;7.084;2023-03-31T00:11:09;1.52;;;0.80;;
37559;SDS011;23398;50.928;7.084;2023-03-31T00:13:36;2.63;;;1.10;;
37559;SDS011;23398;50.928;7.084;2023-03-31T00:16:03;2.40;;;0.90;;
37559;SDS011;23398;50.928;7.084;2023-03-31T00:18:30;2.50;;;1.02;;
37559;SDS011;23398;50.928;7.084;2023-03-31T00:21:06;2.22;;;0.98;;
37559;SDS011;23398;50.928;7.084;2023-03-31T00:23:38;1.98;;;1.00;;
37559;SDS011;23398;50.928;7.084;2023-03-31T00:26:07;2.67;;;0.93;;
37559;SDS011;23398;50.928;7.084;2023-03-31T00:28:33;2.78;;;0.90;;
37559;SDS011;23398;50.928;7.084;2023-03-31T00:30:59;1.40;;;0.93;;
37559;SDS011;23398;50.928;7.084;2023-03-31T00:33:26;1.65;;;1.08;;
37559;SDS011;23398;50.928;7.084;2023-03-31T00:35:52;2.72;;;1.00;;
37559;SDS011;23398;50.928;7.084;2023-03-31T00:38:19;1.80;;;0.82;;
37559;SDS011;23398;50.928;7.084;2023-03-31T00:40:46;2.33;;;1.00;;
37559;SDS011;23398;50.928;7.084;2023-03-31T00:46:17;2.55;;;0.80;;
37559;SDS011;23398;50.928;7.084;2023-03-31T00:48:48;4.05;;;1.00;;
37559;SDS011;23398;50.928;7.084;2023-03-31T00:51:16;2.38;;;0.90;;
37559;SDS011;23398;50.928;7.084;2023-03-31T00:53:45;3.00;;;0.70;;
37559;SDS011;23398;50.928;7.084;2023-03-31T00:56:19;1.50;;;0.90;;
37559;SDS011;23398;50.928;7.084;2023-03-31T00:58:46;1.63;;;0.98;;
37559;SDS011;23398;50.928;7.084;2023-03-31T01:01:15;3.63;;;1.10;;
37559;SDS011;23398;50.928;7.084;2023-03-31T01:03:44;2.30;;;0.95;;
37559;SDS011;23398;50.928;7.084;2023-03-31T01:06:12;2.38;;;1.08;;
37559;SDS011;23398;50.928;7.084;2023-03-31T01:08:43;4.32;;;1.10;;
37559;SDS011;23398;50.928;7.084;2023-03-31T01:11:12;1.55;;;0.95;;
37559;SDS011;23398;50.928;7.084;2023-03-31T01:13:40;2.33;;;0.90;;
37559;SDS011;23398;50.928;7.084;2023-03-31T01:16:07;2.10;;;0.80;;
37559;SDS011;23398;50.928;7.084;2023-03-31T01:18:33;2.75;;;1.20;;
37559;SDS011;23398;50.928;7.084;2023-03-31T01:23:47;2.55;;;1.20;;
37559;SDS011;23398;50.928;7.084;2023-03-31T01:29:22;2.15;;;1.00;;
37559;SDS011;23398;50.928;7.084;2023-03-31T01:42:51;2.67;;;0.90;;
37559;SDS011;23398;50.928;7.084;2023-03-31T01:45:41;2.10;;;0.90;;
37559;SDS011;23398;50.928;7.084;2023-03-31T01:48:11;2.53;;;0.90;;
37559;SDS011;23398;50.928;7.084;2023-03-31T01:50:45;2.25;;;1.10;;
37559;SDS011;23398;50.928;7.084;2023-03-31T01:53:19;3.60;;;1.23;;
37559;SDS011;23398;50.928;7.084;2023-03-31T01:59:33;2.22;;;1.00;;
37559;SDS011;23398;50.928;7.084;2023-03-31T02:07:11;3.17;;;1.00;;
37559;SDS011;23398;50.928;7.084;2023-03-31T02:09:42;2.38;;;0.98;;
37559;SDS011;23398;50.928;7.084;2023-03-31T02:12:11;3.53;;;1.00;;
37559;SDS011;23398;50.928;7.084;2023-03-31T02:14:39;2.28;;;1.00;;
37559;SDS011;23398;50.928;7.084;2023-03-31T02:17:09;3.70;;;1.02;;
37559;SDS011;23398;50.928;7.084;2023-03-31T02:19:42;2.90;;;1.00;;
37559;SDS011;23398;50.928;7.084;2023-03-31T02:22:10;2.45;;;1.10;;
37559;SDS011;23398;50.928;7.084;2023-03-31T02:24:37;4.90;;;1.40;;
37559;SDS011;23398;50.928;7.084;2023-03-31T02:27:07;5.05;;;1.30;;
37559;SDS011;23398;50.928;7.084;2023-03-31T02:29:40;5.38;;;1.45;;
37559;SDS011;23398;50.928;7.084;2023-03-31T02:34:56;4.03;;;1.20;;
37559;SDS011;23398;50.928;7.084;2023-03-31T02:37:22;5.13;;;1.40;;
37559;SDS011;23398;50.928;7.084;2023-03-31T02:39:48;4.15;;;1.23;;
37559;SDS011;23398;50.928;7.084;2023-03-31T02:42:17;2.85;;;1.15;;
37559;SDS011;23398;50.928;7.084;2023-03-31T02:44:43;4.07;;;1.50;;
37559;SDS011;23398;50.928;7.084;2023-03-31T02:47:10;3.58;;;1.40;;
37559;SDS011;23398;50.928;7.084;2023-03-31T02:49:39;3.97;;;1.30;;
37559;SDS011;23398;50.928;7.084;2023-03-31T03:00:11;4.32;;;1.45;;
37559;SDS011;23398;50.928;7.084;2023-03-31T03:02:49;2.72;;;1.30;;
37559;SDS011;23398;50.928;7.084;2023-03-31T03:08:24;3.95;;;1.30;;
37559;SDS011;23398;50.928;7.084;2023-03-31T03:13:46;2.50;;;1.38;;
37559;SDS011;23398;50.928;7.084;2023-03-31T03:16:23;5.38;;;1.30;;
37559;SDS011;23398;50.928;7.084;2023-03-31T03:18:56;3.30;;;1.30;;
37559;SDS011;23398;50.928;7.084;2023-03-31T03:21:27;2.95;;;1.40;;
37559;SDS011;23398;50.928;7.084;2023-03-31T03:23:53;4.35;;;1.40;;
37559;SDS011;23398;50.928;7.084;2023-03-31T03:26:19;4.85;;;1.65;;
37559;SDS011;23398;50.928;7.084;2023-03-31T03:28:47;5.03;;;1.63;;
37559;SDS011;23398;50.928;7.084;2023-03-31T03:31:13;3.63;;;1.20;;
37559;SDS011;23398;50.928;7.084;2023-03-31T03:33:39;4.40;;;1.67;;
37559;SDS011;23398;50.928;7.084;2023-03-31T03:36:05;6.65;;;2.00;;
37559;SDS011;23398;50.928;7.084;2023-03-31T03:38:31;4.05;;;1.40;;
37559;SDS011;23398;50.928;7.084;2023-03-31T03:40:57;6.35;;;1.45;;
37559;SDS011;23398;50.928;7.084;2023-03-31T03:43:22;3.85;;;1.40;;
37559;SDS011;23398;50.928;7.084;2023-03-31T03:45:48;4.28;;;1.38;;
37559;SDS011;23398;50.928;7.084;2023-03-31T03:48:14;3.08;;;1.35;;
37559;SDS011;23398;50.928;7.084;2023-03-31T03:50:40;5.50;;;1.45;;
37559;SDS011;23398;50.928;7.084;2023-03-31T03:53:06;2.75;;;1.30;;
37559;SDS011;23398;50.928;7.084;2023-03-31T03:55:32;3.28;;;1.30;;
37559;SDS011;23398;50.928;7.084;2023-03-31T03:57:58;3.03;;;1.10;;
37559;SDS011;23398;50.928;7.084;2023-03-31T04:00:23;3.97;;;1.20;;
37559;SDS011;23398;50.928;7.084;2023-03-31T04:02:49;5.05;;;1.42;;
37559;SDS011;23398;50.928;7.084;2023-03-31T04:05:15;5.72;;;1.40;;
37559;SDS011;23398;50.928;7.084;2023-03-31T04:07:42;3.92;;;1.50;;
37559;SDS011;23398;50.928;7.084;2023-03-31T04:10:07;3.35;;;1.40;;
37559;SDS011;23398;50.928;7.084;2023-03-31T04:12:34;3.35;;;1.23;;
37559;SDS011;23398;50.928;7.084;2023-03-31T04:15:00;2.22;;;1.17;;
37559;SDS011;23398;50.928;7.084;2023-03-31T04:17:25;4.65;;;1.50;;
37559;SDS011;23398;50.928;7.084;2023-03-31T04:19:58;3.55;;;1.27;;
37559;SDS011;23398;50.928;7.084;2023-03-31T04:22:28;4.78;;;1.48;;
37559;SDS011;23398;50.928;7.084;2023-03-31T04:24:58;3.10;;;1.10;;
37559;SDS011;23398;50.928;7.084;2023-03-31T04:27:27;3.53;;;1.30;;
37559;SDS011;23398;50.928;7.084;2023-03-31T04:29:53;3.63;;;1.30;;
37559;SDS011;23398;50.928;7.084;2023-03-31T04:32:19;2.58;;;1.25;;
37559;SDS011;23398;50.928;7.084;2023-03-31T04:34:45;3.33;;;1.15;;
37559;SDS011;23398;50.928;7.084;2023-03-31T04:37:11;3.92;;;1.15;;
37559;SDS011;23398;50.928;7.084;2023-03-31T04:39:37;3.75;;;1.27;;
37559;SDS011;23398;50.928;7.084;2023-03-31T04:42:03;3.00;;;1.50;;
37559;SDS011;23398;50.928;7.084;2023-03-31T04:44:29;4.35;;;1.25;;
37559;SDS011;23398;50.928;7.084;2023-03-31T04:46:54;2.45;;;1.20;;
37559;SDS011;23398;50.928;7.084;2023-03-31T04:49:20;4.53;;;1.50;;
37559;SDS011;23398;50.928;7.084;2023-03-31T04:51:46;3.97;;;1.30;;
37559;SDS011;23398;50.928;7.084;2023-03-31T04:54:12;2.10;;;1.05;;
37559;SDS011;23398;50.928;7.084;2023-03-31T04:56:38;4.03;;;1.27;;
37559;SDS011;23398;50.928;7.084;2023-03-31T04:59:03;2.03;;;1.15;;
37559;SDS011;23398;50.928;7.084;2023-03-31T05:01:29;2.92;;;1.23;;
37559;SDS011;23398;50.928;7.084;2023-03-31T05:04:00;2.80;;;1.30;;
37559;SDS011;23398;50.928;7.084;2023-03-31T05:06:26;2.38;;;1.00;;
37559;SDS011;23398;50.928;7.084;2023-03-31T05:08:52;6.10;;;1.23;;
37559;SDS011;23398;50.928;7.084;2023-03-31T05:11:17;3.00;;;0.93;;
37559;SDS011;23398;50.928;7.084;2023-03-31T05:13:43;3.08;;;1.30;;
37559;SDS011;23398;50.928;7.084;2023-03-31T05:16:10;3.42;;;1.10;;
37559;SDS011;23398;50.928;7.084;2023-03-31T05:18:38;2.65;;;1.20;;
37559;SDS011;23398;50.928;7.084;2023-03-31T05:21:18;3.63;;;1.20;;
37559;SDS011;23398;50.928;7.084;2023-03-31T05:23:45;1.92;;;1.00;;
37559;SDS011;23398;50.928;7.084;2023-03-31T05:26:10;2.15;;;0.90;;
37559;SDS011;23398;50.928;7.084;2023-03-31T05:28:37;2.33;;;0.90;;
37559;SDS011;23398;50.928;7.084;2023-03-31T05:31:04;2.28;;;1.05;;
37559;SDS011;23398;50.928;7.084;2023-03-31T05:33:31;2.28;;;0.90;;
37559;SDS011;23398;50.928;7.084;2023-03-31T05:35:57;2.83;;;0.93;;
37559;SDS011;23398;50.928;7.084;2023-03-31T05:38:24;1.55;;;0.90;;
37559;SDS011;23398;50.928;7.084;2023-03-31T05:40:53;2.60;;;1.42;;
37559;SDS011;23398;50.928;7.084;2023-03-31T05:43:19;3.85;;;1.00;;
37559;SDS011;23398;50.928;7.084;2023-03-31T05:45:45;2.50;;;1.02;;
37559;SDS011;23398;50.928;7.084;2023-03-31T05:48:11;2.33;;;1.00;;
37559;SDS011;23398;50.928;7.084;2023-03-31T05:50:38;1.95;;;1.00;;
37559;SDS011;23398;50.928;7.084;2023-03-31T05:53:03;2.60;;;1.00;;
37559;SDS011;23398;50.928;7.084;2023-03-31T05:55:29;2.17;;;1.02;;
37559;SDS011;23398;50.928;7.084;2023-03-31T05:57:54;2.90;;;0.90;;
37559;SDS011;23398;50.928;7.084;2023-03-31T06:00:20;3.50;;;1.00;;
37559;SDS011;23398;50.928;7.084;2023-03-31T06:02:48;2.63;;;0.80;;
37559;SDS011;23398;50.928;7.084;2023-03-31T06:05:13;3.13;;;1.10;;
37559;SDS011;23398;50.928;7.084;2023-03-31T06:07:39;3.97;;;0.98;;
37559;SDS011;23398;50.928;7.084;2023-03-31T06:10:05;1.88;;;0.80;;
37559;SDS011;23398;50.928;7.084;2023-03-31T06:12:32;2.00;;;0.90;;
37559;SDS011;23398;50.928;7.084;2023-03-31T06:14:58;2.58;;;1.10;;
37559;SDS011;23398;50.928;7.084;2023-03-31T06:17:23;1.77;;;0.98;;
37559;SDS011;23398;50.928;7.084;2023-03-31T06:19:49;1.60;;;0.90;;
37559;SDS011;23398;50.928;7.084;2023-03-31T06:22:15;0.95;;;0.73;;
37559;SDS011;23398;50.928;7.084;2023-03-31T06:24:40;1.50;;;0.90;;
37559;SDS011;23398;50.928;7.084;2023-03-31T06:27:06;1.42;;;0.82;;
37559;SDS011;23398;50.928;7.084;2023-03-31T06:29:31;1.33;;;0.80;;
37559;SDS011;23398;50.928;7.084;2023-03-31T06:31:57;1.70;;;0.60;;
37559;SDS011;23398;50.928;7.084;2023-03-31T06:34:23;2.22;;;0.65;;
37559;SDS011;23398;50.928;7.084;2023-03-31T06:36:48;1.30;;;0.75;;
37559;SDS011;23398;50.928;7.084;2023-03-31T06:39:15;2.78;;;0.77;;
37559;SDS011;23398;50.928;7.084;2023-03-31T06:41:40;1.52;;;0.60;;
37559;SDS011;23398;50.928;7.084;2023-03-31T06:44:06;1.15;;;0.60;;
37559;SDS011;23398;50.928;7.084;2023-03-31T06:46:31;0.73;;;0.63;;
37559;SDS011;23398;50.928;7.084;2023-03-31T06:48:57;0.68;;;0.60;;
37559;SDS011;23398;50.928;7.084;2023-03-31T06:51:22;0.80;;;0.70;;
37559;SDS011;23398;50.928;7.084;2023-03-31T06:53:48;1.00;;;0.70;;
37559;SDS011;23398;50.928;7.084;2023-03-31T06:56:13;0.98;;;0.60;;
37559;SDS011;23398;50.928;7.084;2023-03-31T06:58:39;1.30;;;0.60;;
37559;SDS011;23398;50.928;7.084;2023-03-31T07:01:05;0.70;;;0.68;;
37559;SDS011;23398;50.928;7.084;2023-03-31T07:03:31;1.23;;;0.70;;
37559;SDS011;23398;50.928;7.084;2023-03-31T07:05:57;0.85;;;0.70;;
37559;SDS011;23398;50.928;7.084;2023-03-31T07:08:23;0.70;;;0.50;;
37559;SDS011;23398;50.928;7.084;2023-03-31T07:10:49;0.85;;;0.52;;
37559;SDS011;23398;50.928;7.084;2023-03-31T07:13:19;1.15;;;0.73;;
37559;SDS011;23398;50.928;7.084;2023-03-31T07:15:48;0.55;;;0.55;;
37559;SDS011;23398;50.928;7.084;2023-03-31T07:18:14;0.40;;;0.40;;
37559;SDS011;23398;50.928;7.084;2023-03-31T07:20:41;0.73;;;0.55;;
37559;SDS011;23398;50.928;7.084;2023-03-31T07:23:07;0.50;;;0.50;;
37559;SDS011;23398;50.928;7.084;2023-03-31T07:25:33;0.43;;;0.43;;
37559;SDS011;23398;50.928;7.084;2023-03-31T07:28:00;0.40;;;0.40;;
37559;SDS011;23398;50.928;7.084;2023-03-31T07:30:26;0.73;;;0.60;;
37559;SDS011;23398;50.928;7.084;2023-03-31T07:32:52;1.30;;;0.60;;
37559;SDS011;23398;50.928;7.084;2023-03-31T07:35:18;0.60;;;0.60;;
37559;SDS011;23398;50.928;7.084;2023-03-31T07:37:45;0.73;;;0.50;;
37559;SDS011;23398;50.928;7.084;2023-03-31T07:40:14;0.57;;;0.57;;
37559;SDS011;23398;50.928;7.084;2023-03-31T07:42:50;0.60;;;0.60;;
37559;SDS011;23398;50.928;7.084;2023-03-31T07:45:17;0.60;;;0.60;;
37559;SDS011;23398;50.928;7.084;2023-03-31T07:47:44;0.63;;;0.60;;
37559;SDS011;23398;50.928;7.084;2023-03-31T07:50:10;0.85;;;0.52;;
37559;SDS011;23398;50.928;7.084;2023-03-31T07:52:36;0.90;;;0.60;;
37559;SDS011;23398;50.928;7.084;2023-03-31T07:55:02;1.17;;;0.63;;
37559;SDS011;23398;50.928;7.084;2023-03-31T07:57:29;0.55;;;0.55;;
37559;SDS011;23398;50.928;7.084;2023-03-31T07:59:55;1.80;;;0.70;;
37559;SDS011;23398;50.928;7.084;2023-03-31T08:02:20;0.60;;;0.60;;
37559;SDS011;23398;50.928;7.084;2023-03-31T08:04:46;0.52;;;0.50;;
37559;SDS011;23398;50.928;7.084;2023-03-31T08:07:12;1.40;;;0.70;;
37559;SDS011;23398;50.928;7.084;2023-03-31T08:09:39;1.15;;;0.80;;
37559;SDS011;23398;50.928;7.084;2023-03-31T08:12:06;1.48;;;0.85;;
37559;SDS011;23398;50.928;7.084;2023-03-31T08:14:32;1.23;;;0.80;;
37559;SDS011;23398;50.928;7.084;2023-03-31T08:16:58;1.35;;;0.80;;
37559;SDS011;23398;50.928;7.084;2023-03-31T08:19:24;0.73;;;0.60;;
37559;SDS011;23398;50.928;7.084;2023-03-31T08:21:50;1.20;;;0.80;;
37559;SDS011;23398;50.928;7.084;2023-03-31T08:24:16;0.77;;;0.60;;
37559;SDS011;23398;50.928;7.084;2023-03-31T08:26:42;1.73;;;0.77;;
37559;SDS011;23398;50.928;7.084;2023-03-31T08:29:07;1.58;;;0.80;;
37559;SDS011;23398;50.928;7.084;2023-03-31T08:31:33;1.25;;;1.00;;
37559;SDS011;23398;50.928;7.084;2023-03-31T08:33:59;2.47;;;1.00;;
37559;SDS011;23398;50.928;7.084;2023-03-31T08:36:26;2.83;;;1.05;;
37559;SDS011;23398;50.928;7.084;2023-03-31T08:38:52;2.38;;;0.80;;
37559;SDS011;23398;50.928;7.084;2023-03-31T08:44:20;3.03;;;1.20;;
37559;SDS011;23398;50.928;7.084;2023-03-31T08:46:50;2.28;;;1.15;;
37559;SDS011;23398;50.928;7.084;2023-03-31T08:49:19;2.65;;;1.20;;
37559;SDS011;23398;50.928;7.084;2023-03-31T08:51:50;2.92;;;1.35;;
37559;SDS011;23398;50.928;7.084;2023-03-31T08:54:20;2.80;;;1.20;;
37559;SDS011;23398;50.928;7.084;2023-03-31T08:56:54;2.15;;;1.10;;
37559;SDS011;23398;50.928;7.084;2023-03-31T08:59:27;1.83;;;1.05;;
37559;SDS011;23398;50.928;7.084;2023-03-31T09:01:58;2.80;;;1.20;;
37559;SDS011;23398;50.928;7.084;2023-03-31T09:04:45;2.63;;;1.13;;
37559;SDS011;23398;50.928;7.084;2023-03-31T09:07:43;2.35;;;1.20;;
37559;SDS011;23398;50.928;7.084;2023-03-31T09:10:25;2.08;;;1.10;;
37559;SDS011;23398;50.928;7.084;2023-03-31T09:13:19;2.30;;;1.10;;
37559;SDS011;23398;50.928;7.084;2023-03-31T09:16:01;2.95;;;1.33;;
37559;SDS011;23398;50.928;7.084;2023-03-31T09:18:36;1.38;;;1.00;;
37559;SDS011;23398;50.928;7.084;2023-03-31T09:21:05;2.55;;;1.20;;
37559;SDS011;23398;50.928;7.084;2023-03-31T09:26:20;2.53;;;1.33;;
37559;SDS011;23398;50.928;7.084;2023-03-31T09:28:50;3.70;;;1.48;;
37559;SDS011;23398;50.928;7.084;2023-03-31T09:31:18;3.53;;;1.50;;
37559;SDS011;23398;50.928;7.084;2023-03-31T09:33:46;2.20;;;1.48;;
37559;SDS011;23398;50.928;7.084;2023-03-31T09:36:18;4.03;;;1.75;;
37559;SDS011;23398;50.928;7.084;2023-03-31T09:38:48;2.92;;;1.40;;
37559;SDS011;23398;50.928;7.084;2023-03-31T09:41:15;2.80;;;1.48;;
37559;SDS011;23398;50.928;7.084;2023-03-31T09:43:43;3.47;;;1.40;;
37559;SDS011;23398;50.928;7.084;2023-03-31T09:46:29;4.57;;;1.40;;
37559;SDS011;23398;50.928;7.084;2023-03-31T09:48:59;2.53;;;1.20;;
37559;SDS011;23398;50.928;7.084;2023-03-31T09:51:38;2.70;;;1.25;;
37559;SDS011;23398;50.928;7.084;2023-03-31T09:56:58;1.63;;;1.10;;
37559;SDS011;23398;50.928;7.084;2023-03-31T09:59:31;3.53;;;1.60;;
37559;SDS011;23398;50.928;7.084;2023-03-31T10:01:59;2.83;;;1.10;;
37559;SDS011;23398;50.928;7.084;2023-03-31T10:04:29;2.78;;;1.20;;
37559;SDS011;23398;50.928;7.084;2023-03-31T10:06:57;5.68;;;1.55;;
37559;SDS011;23398;50.928;7.084;2023-03-31T10:09:25;3.60;;;1.27;;
37559;SDS011;23398;50.928;7.084;2023-03-31T10:14:25;2.50;;;1.27;;
37559;SDS011;23398;50.928;7.084;2023-03-31T10:16:57;2.95;;;1.35;;
37559;SDS011;23398;50.928;7.084;2023-03-31T10:19:28;3.65;;;1.70;;
37559;SDS011;23398;50.928;7.084;2023-03-31T10:22:03;2.72;;;1.40;;
37559;SDS011;23398;50.928;7.084;2023-03-31T10:24:37;4.63;;;1.70;;
37559;SDS011;23398;50.928;7.084;2023-03-31T10:27:06;3.58;;;1.67;;
37559;SDS011;23398;50.928;7.084;2023-03-31T10:29:50;3.22;;;1.67;;
37559;SDS011;23398;50.928;7.084;2023-03-31T10:32:21;3.97;;;1.73;;
37559;SDS011;23398;50.928;7.084;2023-03-31T10:34:53;3.75;;;1.70;;
37559;SDS011;23398;50.928;7.084;2023-03-31T10:37:21;3.63;;;1.88;;
37559;SDS011;23398;50.928;7.084;2023-03-31T10:39:56;4.43;;;1.50;;
37559;SDS011;23398;50.928;7.084;2023-03-31T10:42:24;3.92;;;1.60;;
37559;SDS011;23398;50.928;7.084;2023-03-31T10:47:37;4.95;;;1.67;;
37559;SDS011;23398;50.928;7.084;2023-03-31T10:50:08;4.80;;;1.85;;
37559;SDS011;23398;50.928;7.084;2023-03-31T10:52:45;3.42;;;1.33;;
37559;SDS011;23398;50.928;7.084;2023-03-31T10:55:13;3.15;;;1.30;;
37559;SDS011;23398;50.928;7.084;2023-03-31T10:57:49;3.22;;;1.55;;
37559;SDS011;23398;50.928;7.084;2023-03-31T11:08:52;1.67;;;1.00;;
37559;SDS011;23398;50.928;7.084;2023-03-31T11:17:01;2.22;;;1.10;;
37559;SDS011;23398;50.928;7.084;2023-03-31T11:30:27;1.80;;;1.00;;
37559;SDS011;23398;50.928;7.084;2023-03-31T11:43:33;3.55;;;1.40;;
37559;SDS011;23398;50.928;7.084;2023-03-31T11:46:16;3.83;;;1.17;;
37559;SDS011;23398;50.928;7.084;2023-03-31T11:51:37;2.72;;;1.30;;
37559;SDS011;23398;50.928;7.084;2023-03-31T11:54:16;2.38;;;1.15;;
37559;SDS011;23398;50.928;7.084;2023-03-31T11:56:52;4.22;;;1.70;;
37559;SDS011;23398;50.928;7.084;2023-03-31T11:59:20;4.07;;;1.40;;
37559;SDS011;23398;50.928;7.084;2023-03-31T12:01:51;2.88;;;1.40;;
37559;SDS011;23398;50.928;7.084;2023-03-31T12:04:38;4.22;;;1.50;;
37559;SDS011;23398;50.928;7.084;2023-03-31T12:07:28;3.08;;;1.60;;
37559;SDS011;23398;50.928;7.084;2023-03-31T12:10:01;3.85;;;1.40;;
37559;SDS011;23398;50.928;7.084;2023-03-31T12:12:41;3.95;;;1.90;;
37559;SDS011;23398;50.928;7.084;2023-03-31T12:15:22;4.28;;;1.88;;
37559;SDS011;23398;50.928;7.084;2023-03-31T12:17:58;4.38;;;2.22;;
37559;SDS011;23398;50.928;7.084;2023-03-31T12:20:35;3.88;;;1.38;;
37559;SDS011;23398;50.928;7.084;2023-03-31T12:23:05;3.88;;;1.65;;
37559;SDS011;23398;50.928;7.084;2023-03-31T12:28:37;3.13;;;1.20;;
37559;SDS011;23398;50.928;7.084;2023-03-31T12:31:04;3.30;;;1.27;;
37559;SDS011;23398;50.928;7.084;2023-03-31T12:33:45;2.88;;;1.40;;
37559;SDS011;23398;50.928;7.084;2023-03-31T12:36:23;2.38;;;1.23;;
37559;SDS011;23398;50.928;7.084;2023-03-31T12:42:08;2.65;;;1.20;;
37559;SDS011;23398;50.928;7.084;2023-03-31T12:47:28;4.53;;;1.30;;
37559;SDS011;23398;50.928;7.084;2023-03-31T12:55:19;4.18;;;1.40;;
37559;SDS011;23398;50.928;7.084;2023-03-31T13:05:59;2.78;;;1.20;;
37559;SDS011;23398;50.928;7.084;2023-03-31T13:11:21;3.85;;;1.48;;
37559;SDS011;23398;50.928;7.084;2023-03-31T13:16:49;3.53;;;1.45;;
37559;SDS011;23398;50.928;7.084;2023-03-31T13:19:34;3.33;;;1.05;;
37559;SDS011;23398;50.928;7.084;2023-03-31T13:22:03;2.70;;;1.30;;
37559;SDS011;23398;50.928;7.084;2023-03-31T13:24:30;2.65;;;1.30;;
37559;SDS011;23398;50.928;7.084;2023-03-31T13:26:57;5.10;;;1.40;;
37559;SDS011;23398;50.928;7.084;2023-03-31T13:29:43;2.55;;;1.25;;
37559;SDS011;23398;50.928;7.084;2023-03-31T13:32:17;3.67;;;1.50;;
37559;SDS011;23398;50.928;7.084;2023-03-31T13:34:58;3.92;;;1.40;;
37559;SDS011;23398;50.928;7.084;2023-03-31T13:37:34;4.05;;;1.40;;
37559;SDS011;23398;50.928;7.084;2023-03-31T13:45:43;2.38;;;1.23;;
37559;SDS011;23398;50.928;7.084;2023-03-31T14:07:44;1.90;;;1.20;;
37559;SDS011;23398;50.928;7.084;2023-03-31T14:13:03;3.58;;;1.50;;
37559;SDS011;23398;50.928;7.084;2023-03-31T14:15:49;2.45;;;1.10;;
37559;SDS011;23398;50.928;7.084;2023-03-31T14:18:23;1.98;;;1.20;;
37559;SDS011;23398;50.928;7.084;2023-03-31T14:23:58;3.03;;;1.30;;
37559;SDS011;23398;50.928;7.084;2023-03-31T14:29:37;2.35;;;1.15;;
37559;SDS011;23398;50.928;7.084;2023-03-31T14:37:31;2.90;;;1.20;;
37559;SDS011;23398;50.928;7.084;2023-03-31T14:39:59;1.38;;;0.90;;
37559;SDS011;23398;50.928;7.084;2023-03-31T14:42:28;2.67;;;1.05;;
37559;SDS011;23398;50.928;7.084;2023-03-31T14:45:02;1.27;;;0.90;;
37559;SDS011;23398;50.928;7.084;2023-03-31T14:47:33;2.00;;;1.00;;
37559;SDS011;23398;50.928;7.084;2023-03-31T14:52:27;2.78;;;1.08;;
37559;SDS011;23398;50.928;7.084;2023-03-31T14:54:54;2.55;;;1.10;;
37559;SDS011;23398;50.928;7.084;2023-03-31T14:57:23;2.03;;;1.00;;
37559;SDS011;23398;50.928;7.084;2023-03-31T14:59:53;1.63;;;0.95;;
37559;SDS011;23398;50.928;7.084;2023-03-31T15:02:28;2.03;;;1.00;;
37559;SDS011;23398;50.928;7.084;2023-03-31T15:04:57;3.15;;;1.20;;
37559;SDS011;23398;50.928;7.084;2023-03-31T15:07:25;1.98;;;0.93;;
37559;SDS011;23398;50.928;7.084;2023-03-31T15:09:52;2.80;;;1.20;;
37559;SDS011;23398;50.928;7.084;2023-03-31T15:12:19;3.22;;;1.05;;
37559;SDS011;23398;50.928;7.084;2023-03-31T15:14:53;1.40;;;0.95;;
37559;SDS011;23398;50.928;7.084;2023-03-31T15:17:23;1.65;;;0.90;;
37559;SDS011;23398;50.928;7.084;2023-03-31T15:19:52;1.95;;;1.00;;
37559;SDS011;23398;50.928;7.084;2023-03-31T15:22:20;2.13;;;1.20;;
37559;SDS011;23398;50.928;7.084;2023-03-31T15:24:47;1.45;;;1.00;;
37559;SDS011;23398;50.928;7.084;2023-03-31T15:27:29;3.90;;;1.38;;
37559;SDS011;23398;50.928;7.084;2023-03-31T15:29:56;3.13;;;1.20;;
37559;SDS011;23398;50.928;7.084;2023-03-31T15:32:26;1.85;;;0.98;;
37559;SDS011;23398;50.928;7.084;2023-03-31T15:34:53;3.00;;;1.38;;
37559;SDS011;23398;50.928;7.084;2023-03-31T15:37:24;2.85;;;1.08;;
37559;SDS011;23398;50.928;7.084;2023-03-31T15:39:57;3.20;;;1.25;;
37559;SDS011;23398;50.928;7.084;2023-03-31T15:42:25;1.98;;;1.00;;
37559;SDS011;23398;50.928;7.084;2023-03-31T15:44:54;2.92;;;1.15;;
37559;SDS011;23398;50.928;7.084;2023-03-31T15:47:27;1.35;;;0.82;;
37559;SDS011;23398;50.928;7.084;2023-03-31T15:52:34;1.65;;;0.90;;
37559;SDS011;23398;50.928;7.084;2023-03-31T15:55:23;4.45;;;1.27;;
37559;SDS011;23398;50.928;7.084;2023-03-31T15:57:53;2.88;;;0.73;;
37559;SDS011;23398;50.928;7.084;2023-03-31T16:03:11;2.60;;;1.20;;
37559;SDS011;23398;50.928;7.084;2023-03-31T16:05:49;1.95;;;1.05;;
37559;SDS011;23398;50.928;7.084;2023-03-31T16:08:21;2.05;;;0.90;;
37559;SDS011;23398;50.928;7.084;2023-03-31T16:11:00;1.67;;;0.90;;
37559;SDS011;23398;50.928;7.084;2023-03-31T16:13:32;2.65;;;0.90;;
37559;SDS011;23398;50.928;7.084;2023-03-31T16:15:59;2.03;;;0.85;;
37559;SDS011;23398;50.928;7.084;2023-03-31T16:18:32;1.70;;;1.00;;
37559;SDS011;23398;50.928;7.084;2023-03-31T16:21:05;1.45;;;0.70;;
37559;SDS011;23398;50.928;7.084;2023-03-31T16:23:34;2.15;;;0.90;;
37559;SDS011;23398;50.928;7.084;2023-03-31T16:26:05;2.22;;;1.10;;
37559;SDS011;23398;50.928;7.084;2023-03-31T16:28:32;1.52;;;0.90;;
37559;SDS011;23398;50.928;7.084;2023-03-31T16:31:00;1.63;;;0.90;;
37559;SDS011;23398;50.928;7.084;2023-03-31T16:33:26;2.95;;;1.00;;
37559;SDS011;23398;50.928;7.084;2023-03-31T16:35:54;2.30;;;1.10;;
37559;SDS011;23398;50.928;7.084;2023-03-31T16:38:25;1.30;;;0.80;;
37559;SDS011;23398;50.928;7.084;2023-03-31T16:40:53;3.10;;;1.48;;
37559;SDS011;23398;50.928;7.084;2023-03-31T16:43:24;2.60;;;1.20;;
37559;SDS011;23398;50.928;7.084;2023-03-31T16:45:52;2.53;;;1.00;;
37559;SDS011;23398;50.928;7.084;2023-03-31T16:48:27;2.58;;;0.90;;
37559;SDS011;23398;50.928;7.084;2023-03-31T16:50:54;3.00;;;0.93;;
37559;SDS011;23398;50.928;7.084;2023-03-31T16:53:31;2.17;;;1.00;;
37559;SDS011;23398;50.928;7.084;2023-03-31T16:55:58;1.92;;;0.90;;
37559;SDS011;23398;50.928;7.084;2023-03-31T16:58:25;1.70;;;1.00;;
37559;SDS011;23398;50.928;7.084;2023-03-31T17:00:54;1.92;;;0.98;;
37559;SDS011;23398;50.928;7.084;2023-03-31T17:03:21;1.42;;;0.80;;
37559;SDS011;23398;50.928;7.084;2023-03-31T17:05:47;1.77;;;0.90;;
37559;SDS011;23398;50.928;7.084;2023-03-31T17:08:17;3.10;;;1.00;;
37559;SDS011;23398;50.928;7.084;2023-03-31T17:10:50;2.10;;;0.90;;
37559;SDS011;23398;50.928;7.084;2023-03-31T17:13:18;1.67;;;0.90;;
37559;SDS011;23398;50.928;7.084;2023-03-31T17:15:44;1.15;;;0.70;;
37559;SDS011;23398;50.928;7.084;2023-03-31T17:18:10;2.05;;;0.80;;
37559;SDS011;23398;50.928;7.084;2023-03-31T17:20:35;1.48;;;0.90;;
37559;SDS011;23398;50.928;7.084;2023-03-31T17:23:01;2.35;;;0.80;;
37559;SDS011;23398;50.928;7.084;2023-03-31T17:25:27;1.55;;;0.80;;
37559;SDS011;23398;50.928;7.084;2023-03-31T17:27:52;2.00;;;0.80;;
37559;SDS011;23398;50.928;7.084;2023-03-31T17:30:19;2.97;;;0.90;;
37559;SDS011;23398;50.928;7.084;2023-03-31T17:32:46;2.53;;;1.02;;
37559;SDS011;23398;50.928;7.084;2023-03-31T17:35:12;0.98;;;0.73;;
37559;SDS011;23398;50.928;7.084;2023-03-31T17:37:44;1.02;;;0.70;;
37559;SDS011;23398;50.928;7.084;2023-03-31T17:40:10;2.38;;;0.90;;
37559;SDS011;23398;50.928;7.084;2023-03-31T17:42:37;2.22;;;1.20;;
37559;SDS011;23398;50.928;7.084;2023-03-31T17:45:03;2.55;;;1.10;;
37559;SDS011;23398;50.928;7.084;2023-03-31T17:47:29;2.53;;;0.95;;
37559;SDS011;23398;50.928;7.084;2023-03-31T17:49:56;2.08;;;1.13;;
37559;SDS011;23398;50.928;7.084;2023-03-31T17:52:22;2.13;;;1.10;;
37559;SDS011;23398;50.928;7.084;2023-03-31T17:54:49;2.28;;;0.85;;